Time;durP1;ratioP1;P1;durP2;ratioP2;P2;SDS_P1;SDS_P2;PMS_P1;PMS_P2;Temp;Humidity;BMP_temperature;BMP_pressure;BME280_temperature;BME280_humidity;BME280_pressure;Samples;Min_cycle;Max_cycle;Signal;HPM_P1;HPM_P2
2023/05/29 00:00:47;;;;;;;20.90;17.95;;;12.30;99.90;;;;;;4971408;28;20109;-73
2023/05/29 00:03:14;;;;;;;21.95;17.45;;;12.30;99.90;;;;;;4967037;28;20414;-71
2023/05/29 00:05:41;;;;;;;19.58;17.80;;;12.30;99.90;;;;;;4970137;28;20046;-72
2023/05/29 00:08:07;;;;;;;18.23;16.58;;;12.10;99.90;;;;;;4965459;28;20429;-72
2023/05/29 00:10:35;;;;;;;17.30;15.82;;;12.10;99.90;;;;;;4967062;28;20061;-72
2023/05/29 00:13:02;;;;;;;18.77;16.92;;;12.10;99.90;;;;;;4966243;28;20050;-71
2023/05/29 00:15:30;;;;;;;18.80;16.48;;;12.10;99.90;;;;;;4969124;28;20189;-71
2023/05/29 00:17:57;;;;;;;19.67;17.60;;;12.10;99.90;;;;;;4964476;28;20051;-70
2023/05/29 00:20:24;;;;;;;21.60;16.83;;;12.00;99.90;;;;;;4972305;28;20444;-73
2023/05/29 00:22:51;;;;;;;18.15;16.45;;;11.90;99.90;;;;;;4972837;28;20043;-71
2023/05/29 00:25:18;;;;;;;19.40;17.08;;;12.00;99.90;;;;;;4967266;28;20082;-72
2023/05/29 00:27:44;;;;;;;23.10;17.67;;;11.90;99.90;;;;;;4971012;28;20097;-72
2023/05/29 00:30:11;;;;;;;18.38;16.70;;;11.90;99.90;;;;;;4979411;28;20062;-72
2023/05/29 00:32:38;;;;;;;19.42;16.70;;;11.90;99.90;;;;;;4973097;28;20401;-73
2023/05/29 00:35:05;;;;;;;22.48;17.75;;;11.90;99.90;;;;;;4967656;28;20039;-72
2023/05/29 00:37:32;;;;;;;18.30;16.58;;;11.90;99.90;;;;;;4971079;28;20496;-72
2023/05/29 00:39:59;;;;;;;22.33;18.48;;;11.80;99.90;;;;;;4969927;28;20242;-71
2023/05/29 00:42:25;;;;;;;21.45;18.67;;;11.80;99.90;;;;;;4971060;28;20706;-72
2023/05/29 00:44:52;;;;;;;23.13;18.15;;;11.80;99.90;;;;;;4970354;28;20047;-71
2023/05/29 00:47:19;;;;;;;22.77;18.17;;;11.80;99.90;;;;;;4964210;28;20153;-71
2023/05/29 00:49:51;;;;;;;26.42;20.83;;;11.80;99.90;;;;;;4970160;28;20046;-71
2023/05/29 00:52:19;;;;;;;20.85;18.95;;;11.70;99.90;;;;;;4963288;28;20046;-71
2023/05/29 00:54:46;;;;;;;27.08;20.02;;;11.60;99.90;;;;;;4966904;28;20416;-71
2023/05/29 00:57:15;;;;;;;26.38;20.77;;;11.60;99.90;;;;;;4968404;28;20066;-71
2023/05/29 00:59:43;;;;;;;25.50;20.98;;;11.50;99.90;;;;;;4972491;28;20313;-71
2023/05/29 01:02:10;;;;;;;27.33;21.23;;;11.50;99.90;;;;;;4966535;28;20042;-72
2023/05/29 01:04:38;;;;;;;26.88;21.20;;;11.50;99.90;;;;;;4975300;28;20145;-72
2023/05/29 01:07:05;;;;;;;25.63;20.85;;;11.50;99.90;;;;;;4962852;28;20042;-72
2023/05/29 01:09:34;;;;;;;28.13;20.65;;;11.50;99.90;;;;;;4973766;28;20046;-72
2023/05/29 01:12:23;;;;;;;29.02;21.20;;;11.40;99.90;;;;;;4980817;28;20053;-72
2023/05/29 01:15:17;;;;;;;25.67;21.48;;;11.40;99.90;;;;;;4970847;28;20133;-72
2023/05/29 01:17:58;;;;;;;32.72;22.10;;;11.30;99.90;;;;;;4970654;28;20061;-72
2023/05/29 01:21:02;;;;;;;30.42;22.55;;;11.30;99.90;;;;;;4972549;28;20058;-71
2023/05/29 01:23:51;;;;;;;32.38;21.15;;;11.20;99.90;;;;;;4949333;28;20042;-73
2023/05/29 01:26:51;;;;;;;28.95;21.38;;;11.20;99.90;;;;;;4963510;28;20061;-72
2023/05/29 01:29:27;;;;;;;23.27;19.77;;;11.00;99.90;;;;;;4963347;28;20315;-72
2023/05/29 01:31:55;;;;;;;31.52;18.00;;;10.90;99.90;;;;;;4965089;28;20054;-71
2023/05/29 01:34:22;;;;;;;25.30;17.38;;;11.00;99.90;;;;;;4967632;28;20078;-70
2023/05/29 01:36:49;;;;;;;27.90;18.35;;;11.00;99.90;;;;;;4967093;28;20475;-71
2023/05/29 01:39:18;;;;;;;20.58;17.55;;;10.90;99.90;;;;;;4964088;28;20093;-71
2023/05/29 01:41:45;;;;;;;26.25;17.83;;;10.90;99.90;;;;;;4985416;28;20054;-71
2023/05/29 01:44:13;;;;;;;20.88;16.20;;;10.90;99.90;;;;;;4977880;28;20050;-71
2023/05/29 01:46:41;;;;;;;26.50;17.20;;;10.80;99.90;;;;;;4970132;28;20066;-71
2023/05/29 01:49:10;;;;;;;25.90;15.70;;;10.80;99.90;;;;;;4965100;28;20073;-71
2023/05/29 01:51:38;;;;;;;28.83;15.90;;;10.80;99.90;;;;;;4970260;28;20508;-71
2023/05/29 01:54:05;;;;;;;23.98;15.95;;;10.70;99.90;;;;;;4975441;28;20517;-72
2023/05/29 01:56:32;;;;;;;28.50;15.60;;;10.60;99.90;;;;;;4972596;28;20049;-71
2023/05/29 01:59:02;;;;;;;20.88;16.40;;;10.60;99.90;;;;;;4971325;28;20050;-72
2023/05/29 02:01:30;;;;;;;23.60;16.40;;;10.50;99.90;;;;;;4971220;28;20489;-71
2023/05/29 02:03:57;;;;;;;28.55;16.23;;;10.50;99.90;;;;;;4970675;28;20436;-72
2023/05/29 02:06:24;;;;;;;24.67;16.00;;;10.40;99.90;;;;;;4963084;28;20129;-73
2023/05/29 02:08:53;;;;;;;24.60;15.98;;;10.40;99.90;;;;;;4984947;28;20052;-71
2023/05/29 02:11:20;;;;;;;24.35;16.80;;;10.40;99.90;;;;;;4965901;28;20078;-71
2023/05/29 02:13:47;;;;;;;30.90;18.02;;;10.30;99.90;;;;;;4974235;28;20369;-71
2023/05/29 02:16:14;;;;;;;25.42;17.05;;;10.30;99.90;;;;;;4969159;28;20057;-71
2023/05/29 02:18:41;;;;;;;22.17;17.33;;;10.30;99.90;;;;;;4954509;28;20061;-71
2023/05/29 02:21:08;;;;;;;26.80;16.48;;;10.20;99.90;;;;;;4965267;28;20089;-72
2023/05/29 02:23:35;;;;;;;25.08;16.40;;;10.20;99.90;;;;;;4965861;28;20043;-72
2023/05/29 02:26:02;;;;;;;28.35;16.55;;;10.10;99.90;;;;;;4971347;28;20562;-70
2023/05/29 02:28:28;;;;;;;25.65;17.02;;;10.00;99.90;;;;;;4964793;28;20041;-70
2023/05/29 02:30:55;;;;;;;29.00;16.80;;;10.10;99.90;;;;;;4966257;28;20121;-70
2023/05/29 02:33:22;;;;;;;21.75;16.33;;;9.90;99.90;;;;;;4980693;28;20097;-70
2023/05/29 02:35:49;;;;;;;26.50;16.45;;;9.90;99.90;;;;;;4966928;28;20067;-70
2023/05/29 02:38:16;;;;;;;23.30;16.85;;;9.90;99.90;;;;;;4961460;28;20121;-71
2023/05/29 02:40:43;;;;;;;28.20;16.95;;;10.00;99.90;;;;;;4966845;28;20162;-71
2023/05/29 02:43:13;;;;;;;29.55;16.30;;;10.00;99.90;;;;;;4960754;28;20046;-70
2023/05/29 02:45:39;;;;;;;23.70;15.48;;;9.90;99.90;;;;;;4965312;28;20351;-73
2023/05/29 02:48:07;;;;;;;23.00;16.25;;;9.80;99.90;;;;;;4967380;28;20697;-71
2023/05/29 02:50:34;;;;;;;30.85;17.08;;;9.80;99.90;;;;;;4964840;28;20125;-71
2023/05/29 02:53:01;;;;;;;29.58;17.00;;;9.80;99.90;;;;;;4952158;28;20137;-71
2023/05/29 02:55:28;;;;;;;24.48;17.27;;;9.80;99.90;;;;;;4966447;28;20054;-71
2023/05/29 02:57:55;;;;;;;25.42;14.88;;;9.90;99.90;;;;;;4978804;28;20050;-72
2023/05/29 03:00:22;;;;;;;19.90;14.80;;;9.70;99.90;;;;;;4962901;28;20113;-73
2023/05/29 03:02:49;;;;;;;22.55;15.77;;;9.70;99.90;;;;;;4971744;28;20389;-71
2023/05/29 03:05:17;;;;;;;26.05;15.68;;;9.80;99.90;;;;;;4966686;28;20057;-71
2023/05/29 03:07:44;;;;;;;27.48;15.30;;;9.70;99.90;;;;;;4970180;28;20053;-71
2023/05/29 03:10:11;;;;;;;24.73;14.75;;;9.70;99.90;;;;;;4963341;28;20049;-72
2023/05/29 03:12:39;;;;;;;22.88;15.77;;;9.70;99.90;;;;;;4968695;28;20422;-72
2023/05/29 03:15:06;;;;;;;28.95;15.82;;;9.70;99.90;;;;;;4965356;28;20121;-71
2023/05/29 03:17:33;;;;;;;23.75;16.58;;;9.60;99.90;;;;;;4982414;28;20104;-71
2023/05/29 03:19:59;;;;;;;20.73;16.77;;;9.50;99.90;;;;;;4968497;28;20146;-74
2023/05/29 03:22:26;;;;;;;27.45;17.70;;;9.60;99.90;;;;;;4967601;28;20061;-72
2023/05/29 03:24:53;;;;;;;26.58;19.23;;;9.50;99.90;;;;;;4985020;28;20104;-71
2023/05/29 03:27:20;;;;;;;31.08;19.63;;;9.40;99.90;;;;;;4965129;28;20082;-70
2023/05/29 03:29:57;;;;;;;25.63;19.60;;;9.50;99.90;;;;;;4936603;28;1034011;-71
2023/05/29 03:32:24;;;;;;;21.85;19.50;;;9.50;99.90;;;;;;4976333;28;20034;-73
2023/05/29 03:34:51;;;;;;;28.98;20.70;;;9.40;99.90;;;;;;4972425;28;20304;-71
2023/05/29 03:37:18;;;;;;;29.25;20.42;;;9.50;99.90;;;;;;4969968;28;20061;-70
2023/05/29 03:39:46;;;;;;;27.30;20.33;;;9.50;99.90;;;;;;4970701;28;20050;-71
2023/05/29 03:42:14;;;;;;;33.28;21.40;;;9.40;99.90;;;;;;4966553;28;20081;-72
2023/05/29 03:44:41;;;;;;;26.35;21.38;;;9.30;99.90;;;;;;4974068;28;20081;-71
2023/05/29 03:47:10;;;;;;;27.25;21.17;;;9.30;99.90;;;;;;4981132;28;20645;-70
2023/05/29 03:49:37;;;;;;;29.83;21.50;;;9.30;99.90;;;;;;4971298;28;20051;-70
2023/05/29 03:52:05;;;;;;;30.55;22.83;;;9.30;99.90;;;;;;4974513;28;20042;-71
2023/05/29 03:54:33;;;;;;;26.13;21.38;;;9.30;99.90;;;;;;4966662;28;20041;-71
2023/05/29 03:57:01;;;;;;;28.17;20.17;;;9.30;99.90;;;;;;4971437;28;20109;-71
2023/05/29 03:59:28;;;;;;;25.10;20.17;;;9.40;99.90;;;;;;4953090;28;20055;-71
2023/05/29 04:01:55;;;;;;;24.70;20.35;;;9.40;99.90;;;;;;4965018;28;20276;-72
2023/05/29 04:04:22;;;;;;;23.30;20.83;;;9.40;99.90;;;;;;4979530;28;20071;-72
2023/05/29 04:06:50;;;;;;;33.92;22.05;;;9.40;99.90;;;;;;4980980;28;20053;-71
2023/05/29 04:09:18;;;;;;;29.35;20.77;;;9.30;99.90;;;;;;4980200;28;20257;-71
2023/05/29 04:11:46;;;;;;;34.08;22.75;;;9.30;99.90;;;;;;4967704;28;20046;-72
2023/05/29 04:14:12;;;;;;;31.15;22.95;;;9.40;99.90;;;;;;4978887;28;20047;-72
2023/05/29 04:16:39;;;;;;;35.72;22.45;;;9.50;99.90;;;;;;4971551;28;20395;-72
2023/05/29 04:19:06;;;;;;;27.15;20.58;;;9.40;99.90;;;;;;4950108;28;20042;-71
2023/05/29 04:21:33;;;;;;;27.02;21.35;;;9.30;99.90;;;;;;4982527;28;20499;-72
2023/05/29 04:24:00;;;;;;;32.22;21.98;;;9.40;99.90;;;;;;4967294;28;20051;-71
2023/05/29 04:26:27;;;;;;;28.40;22.30;;;9.50;99.90;;;;;;4965281;28;20047;-73
2023/05/29 04:28:57;;;;;;;26.30;21.65;;;9.60;99.90;;;;;;4982617;28;20049;-72
2023/05/29 04:31:27;;;;;;;27.58;22.70;;;9.70;99.90;;;;;;4964502;28;20227;-71
2023/05/29 04:33:55;;;;;;;24.73;22.02;;;9.80;99.90;;;;;;4969858;28;20042;-72
2023/05/29 04:36:25;;;;;;;28.65;22.30;;;9.90;99.90;;;;;;4980492;28;20112;-72
2023/05/29 04:39:00;;;;;;;29.83;22.92;;;10.00;99.90;;;;;;4966911;28;20042;-72
2023/05/29 04:41:30;;;;;;;25.08;22.45;;;10.10;99.90;;;;;;4985570;28;20105;-72
2023/05/29 04:43:58;;;;;;;36.03;22.23;;;10.10;99.90;;;;;;4972551;28;20132;-71
2023/05/29 04:46:31;;;;;;;24.35;22.10;;;10.20;99.90;;;;;;4965719;28;20818;-72
2023/05/29 04:48:58;;;;;;;24.80;22.30;;;10.50;99.90;;;;;;4987089;28;20046;-71
2023/05/29 04:51:28;;;;;;;27.00;22.15;;;10.50;99.90;;;;;;4963601;28;20070;-72
2023/05/29 04:53:55;;;;;;;25.85;23.17;;;10.50;99.90;;;;;;4980717;28;20054;-71
2023/05/29 04:56:22;;;;;;;30.65;22.95;;;10.60;99.90;;;;;;4979436;28;20420;-72
2023/05/29 04:58:49;;;;;;;28.27;23.20;;;10.70;99.90;;;;;;4973285;28;20058;-72
2023/05/29 05:01:17;;;;;;;26.08;23.50;;;10.80;99.90;;;;;;4977086;28;20141;-72
2023/05/29 05:03:44;;;;;;;28.77;23.83;;;10.90;99.90;;;;;;4970040;28;20058;-73
2023/05/29 05:06:12;;;;;;;26.58;23.85;;;11.10;99.90;;;;;;4970851;28;20054;-71
2023/05/29 05:08:40;;;;;;;27.42;24.95;;;11.40;99.90;;;;;;4970803;28;20420;-73
2023/05/29 05:11:07;;;;;;;26.00;23.60;;;11.50;99.90;;;;;;4970362;28;20082;-73
2023/05/29 05:13:34;;;;;;;25.15;22.88;;;11.30;99.90;;;;;;4968181;28;20050;-73
2023/05/29 05:16:01;;;;;;;26.08;23.30;;;11.00;99.90;;;;;;4975388;28;20124;-73
2023/05/29 05:18:29;;;;;;;30.05;24.80;;;10.80;99.90;;;;;;4967649;28;20054;-72
2023/05/29 05:21:05;;;;;;;26.27;23.63;;;11.00;99.90;;;;;;4982021;28;20130;-72
2023/05/29 05:23:33;;;;;;;28.40;25.20;;;11.40;99.90;;;;;;4951632;28;20046;-73
2023/05/29 05:26:19;;;;;;;27.13;24.73;;;11.50;99.90;;;;;;4954554;28;20173;-72
2023/05/29 05:28:46;;;;;;;27.33;24.80;;;11.80;99.90;;;;;;4949899;28;20066;-72
2023/05/29 05:31:13;;;;;;;27.70;24.83;;;12.00;99.90;;;;;;4971188;28;20045;-72
2023/05/29 05:33:40;;;;;;;26.48;24.17;;;12.30;99.90;;;;;;4968875;28;20100;-73
2023/05/29 05:36:07;;;;;;;26.75;24.65;;;11.90;99.90;;;;;;4969887;28;20243;-71
2023/05/29 05:38:34;;;;;;;25.63;23.42;;;11.90;99.90;;;;;;4965517;28;20505;-71
2023/05/29 05:41:01;;;;;;;26.20;23.25;;;12.20;99.90;;;;;;4971285;28;20618;-71
2023/05/29 05:43:30;;;;;;;26.42;23.95;;;11.90;99.90;;;;;;4970551;28;20046;-71
2023/05/29 05:46:18;;;;;;;25.50;22.95;;;12.20;99.90;;;;;;4965572;28;20080;-71
2023/05/29 05:48:45;;;;;;;25.08;22.70;;;12.40;99.90;;;;;;4965917;28;20574;-73
2023/05/29 05:51:12;;;;;;;25.55;23.13;;;12.10;99.90;;;;;;4967538;28;20085;-72
2023/05/29 05:53:40;;;;;;;25.85;23.63;;;11.90;99.90;;;;;;4966853;28;20435;-73
2023/05/29 05:56:07;;;;;;;26.17;23.60;;;12.30;99.90;;;;;;4968080;28;20038;-73
2023/05/29 05:58:34;;;;;;;25.27;23.23;;;12.70;99.90;;;;;;4966373;28;20046;-69
2023/05/29 06:01:02;;;;;;;25.55;23.50;;;12.70;99.90;;;;;;4944539;28;20552;-70
2023/05/29 06:03:29;;;;;;;25.27;23.27;;;12.50;99.90;;;;;;4968780;28;20290;-72
2023/05/29 06:06:05;;;;;;;25.80;23.65;;;12.90;99.90;;;;;;4969643;28;20077;-72
2023/05/29 06:08:32;;;;;;;27.98;25.65;;;13.10;99.90;;;;;;4968931;28;20050;-72
2023/05/29 06:10:59;;;;;;;30.55;27.92;;;13.30;99.90;;;;;;4970216;28;20042;-72
2023/05/29 06:13:26;;;;;;;28.92;26.35;;;13.40;99.90;;;;;;4970648;28;20670;-72
2023/05/29 06:16:02;;;;;;;28.83;26.23;;;13.70;99.90;;;;;;4970584;28;20229;-72
2023/05/29 06:18:29;;;;;;;30.10;27.25;;;14.00;99.90;;;;;;4959565;28;20136;-71
2023/05/29 06:20:56;;;;;;;30.52;28.08;;;13.90;99.90;;;;;;4974439;28;20047;-71
2023/05/29 06:23:25;;;;;;;31.48;28.75;;;13.70;99.90;;;;;;4947763;28;20154;-71
2023/05/29 06:25:52;;;;;;;31.40;28.83;;;13.80;99.90;;;;;;4970171;28;20143;-70
2023/05/29 06:28:19;;;;;;;31.58;29.15;;;13.90;99.90;;;;;;4979206;28;20109;-70
2023/05/29 06:30:47;;;;;;;30.38;27.60;;;14.30;99.90;;;;;;4947716;28;20045;-71
2023/05/29 06:33:13;;;;;;;31.67;29.17;;;14.60;99.90;;;;;;4970596;28;20421;-71
2023/05/29 06:35:41;;;;;;;32.78;29.95;;;14.80;99.90;;;;;;4966595;28;20117;-72
2023/05/29 06:38:11;;;;;;;31.95;29.40;;;15.00;99.90;;;;;;4970483;28;20089;-71
2023/05/29 06:40:39;;;;;;;32.28;29.77;;;15.00;99.90;;;;;;4953430;28;21315;-72
2023/05/29 06:43:06;;;;;;;30.58;28.52;;;14.90;99.90;;;;;;4968760;28;20050;-72
2023/05/29 06:45:38;;;;;;;31.92;29.25;;;14.80;99.90;;;;;;4965456;28;20058;-73
2023/05/29 06:48:05;;;;;;;31.77;29.58;;;14.90;99.90;;;;;;4967612;28;20224;-71
2023/05/29 06:50:33;;;;;;;32.58;29.98;;;15.10;99.90;;;;;;4964046;28;20053;-72
2023/05/29 06:53:13;;;;;;;33.20;30.65;;;15.10;99.90;;;;;;4969874;28;20046;-71
2023/05/29 06:55:47;;;;;;;32.73;30.33;;;15.30;99.90;;;;;;4970663;28;20054;-72
2023/05/29 06:58:14;;;;;;;33.58;31.00;;;15.50;99.90;;;;;;4970190;28;20528;-71
2023/05/29 07:00:41;;;;;;;33.47;31.10;;;15.50;99.90;;;;;;4968082;28;20054;-73
2023/05/29 07:03:20;;;;;;;33.25;31.05;;;15.50;99.90;;;;;;4971321;28;20047;-72
2023/05/29 07:05:47;;;;;;;35.00;32.40;;;15.60;99.90;;;;;;4981739;28;20430;-70
2023/05/29 07:08:14;;;;;;;34.03;31.45;;;15.50;99.90;;;;;;4967360;28;20092;-72
2023/05/29 07:10:41;;;;;;;34.05;31.35;;;15.60;99.90;;;;;;4968810;28;22336;-70
2023/05/29 07:13:08;;;;;;;35.20;32.63;;;15.50;99.90;;;;;;4969887;28;20050;-73
2023/05/29 07:15:38;;;;;;;35.60;32.78;;;15.40;99.90;;;;;;4967172;28;20042;-70
2023/05/29 07:18:05;;;;;;;36.90;33.92;;;15.60;99.90;;;;;;4974229;28;20116;-70
2023/05/29 07:20:31;;;;;;;35.67;33.17;;;15.70;99.90;;;;;;4968240;28;20331;-70
2023/05/29 07:22:59;;;;;;;37.90;35.13;;;15.60;99.90;;;;;;4976387;28;20303;-70
2023/05/29 07:25:26;;;;;;;36.75;34.13;;;15.00;99.90;;;;;;4970879;28;20046;-70
2023/05/29 07:27:52;;;;;;;36.75;34.28;;;14.90;99.90;;;;;;4974300;28;20057;-70
2023/05/29 07:30:19;;;;;;;36.45;34.17;;;14.70;99.90;;;;;;4968755;28;20042;-71
2023/05/29 07:32:47;;;;;;;37.10;34.55;;;14.90;99.90;;;;;;4982154;28;20047;-72
2023/05/29 07:35:15;;;;;;;35.25;32.58;;;15.40;99.90;;;;;;4973743;28;20042;-71
2023/05/29 07:37:42;;;;;;;35.13;32.47;;;15.70;99.90;;;;;;4969544;28;20050;-70
2023/05/29 07:40:12;;;;;;;37.88;34.83;;;15.40;99.90;;;;;;4961886;28;20046;-70
2023/05/29 07:42:57;;;;;;;35.83;33.45;;;15.60;99.90;;;;;;4971247;28;20057;-71
2023/05/29 07:45:30;;;;;;;39.05;36.10;;;15.70;99.90;;;;;;4969227;28;20548;-71
2023/05/29 07:47:57;;;;;;;37.15;34.65;;;15.80;99.90;;;;;;4970048;28;20062;-71
2023/05/29 07:50:25;;;;;;;35.92;33.63;;;16.30;99.90;;;;;;4980819;28;20066;-69
2023/05/29 07:52:52;;;;;;;38.13;34.95;;;16.60;99.90;;;;;;4969758;28;20641;-71
2023/05/29 07:55:19;;;;;;;38.90;35.95;;;16.00;99.90;;;;;;4972451;28;20535;-72
2023/05/29 07:57:46;;;;;;;37.85;35.13;;;14.80;99.90;;;;;;4963799;28;20549;-70
2023/05/29 08:00:13;;;;;;;38.08;35.53;;;15.30;99.90;;;;;;4967369;28;20109;-71
2023/05/29 08:02:45;;;;;;;38.22;35.15;;;15.90;99.90;;;;;;4967662;28;20141;-71
2023/05/29 08:05:34;;;;;;;38.50;35.58;;;16.40;99.90;;;;;;4953155;28;20259;-70
2023/05/29 08:08:06;;;;;;;38.58;35.90;;;16.80;99.90;;;;;;4972485;28;20042;-70
2023/05/29 08:10:34;;;;;;;40.13;36.58;;;16.90;99.90;;;;;;4968305;28;20042;-70
2023/05/29 08:13:02;;;;;;;37.50;34.85;;;17.00;99.90;;;;;;4972482;28;20448;-70
2023/05/29 08:15:31;;;;;;;39.38;36.65;;;17.40;99.90;;;;;;4981650;28;20555;-71
2023/05/29 08:17:58;;;;;;;40.30;37.08;;;17.60;99.90;;;;;;4966816;28;20459;-73
2023/05/29 08:20:25;;;;;;;38.40;35.70;;;17.70;99.90;;;;;;4969906;28;20500;-70
2023/05/29 08:22:51;;;;;;;39.42;36.95;;;18.00;99.90;;;;;;4964895;28;20419;-70
2023/05/29 08:25:18;;;;;;;38.95;36.38;;;17.80;99.90;;;;;;4983269;28;20046;-70
2023/05/29 08:27:46;;;;;;;40.30;37.60;;;18.10;99.90;;;;;;4966768;28;20085;-70
2023/05/29 08:30:13;;;;;;;40.20;37.65;;;17.90;99.90;;;;;;4966523;28;20081;-72
2023/05/29 08:32:39;;;;;;;37.25;34.78;;;16.90;99.90;;;;;;4965592;28;20128;-71
2023/05/29 08:35:07;;;;;;;35.92;33.15;;;16.90;99.90;;;;;;4969063;28;20042;-71
2023/05/29 08:37:33;;;;;;;37.33;34.85;;;17.10;99.90;;;;;;4962760;28;20382;-71
2023/05/29 08:40:01;;;;;;;39.55;36.75;;;16.80;99.90;;;;;;4968451;28;20054;-71
2023/05/29 08:42:33;;;;;;;40.42;36.83;;;16.90;99.90;;;;;;4966213;28;20034;-71
2023/05/29 08:45:04;;;;;;;39.38;36.33;;;17.50;99.90;;;;;;4969577;28;20053;-71
2023/05/29 08:47:33;;;;;;;38.90;35.78;;;18.00;99.90;;;;;;4965124;28;20336;-72
2023/05/29 08:50:02;;;;;;;40.15;37.53;;;18.30;99.90;;;;;;4970813;28;20670;-72
2023/05/29 08:52:32;;;;;;;40.30;37.30;;;18.40;99.90;;;;;;4960999;28;20133;-70
2023/05/29 08:55:00;;;;;;;38.92;36.10;;;18.30;99.90;;;;;;4971795;28;20133;-71
2023/05/29 08:57:29;;;;;;;40.95;38.13;;;18.20;99.90;;;;;;4970383;28;20045;-71
2023/05/29 08:59:56;;;;;;;40.55;37.75;;;18.10;99.90;;;;;;4969583;28;20046;-71
2023/05/29 09:02:23;;;;;;;38.13;35.55;;;18.30;99.90;;;;;;4966634;28;20042;-72
2023/05/29 09:04:52;;;;;;;39.97;37.30;;;18.60;99.90;;;;;;4961675;28;20187;-73
2023/05/29 09:07:19;;;;;;;41.03;38.35;;;18.50;99.90;;;;;;4964743;28;20050;-71
2023/05/29 09:09:46;;;;;;;40.22;37.72;;;17.50;99.90;;;;;;4963554;28;20078;-70
2023/05/29 09:12:14;;;;;;;42.13;39.58;;;17.80;99.90;;;;;;4968219;28;20039;-71
2023/05/29 09:14:42;;;;;;;40.15;37.47;;;18.20;99.90;;;;;;4950321;28;20128;-73
2023/05/29 09:17:10;;;;;;;40.13;37.33;;;18.10;99.90;;;;;;4965181;28;20051;-72
2023/05/29 09:19:40;;;;;;;40.17;37.22;;;18.30;99.90;;;;;;4961495;28;20050;-71
2023/05/29 09:22:14;;;;;;;36.85;34.05;;;18.70;99.90;;;;;;4950612;28;20117;-71
2023/05/29 09:24:45;;;;;;;37.97;35.30;;;19.20;99.90;;;;;;4963140;28;20058;-70
2023/05/29 09:27:12;;;;;;;40.10;37.42;;;19.30;99.90;;;;;;4967493;28;20142;-72
2023/05/29 09:29:43;;;;;;;41.17;38.35;;;19.20;99.90;;;;;;4966003;28;20046;-70
2023/05/29 09:32:19;;;;;;;40.75;38.05;;;19.20;99.90;;;;;;4963827;28;20241;-71
2023/05/29 09:34:46;;;;;;;40.90;37.65;;;19.40;99.90;;;;;;4965062;28;20042;-71
2023/05/29 09:37:13;;;;;;;41.53;38.58;;;19.70;99.90;;;;;;4962253;28;20145;-72
2023/05/29 09:39:43;;;;;;;41.38;38.35;;;19.90;99.90;;;;;;4965409;28;20276;-71
2023/05/29 09:42:10;;;;;;;42.20;39.40;;;19.90;99.90;;;;;;4982265;28;20611;-72
2023/05/29 09:44:37;;;;;;;43.40;40.25;;;20.10;99.90;;;;;;4962654;28;20291;-72
2023/05/29 09:47:04;;;;;;;40.88;37.95;;;19.20;99.90;;;;;;4964895;28;20218;-71
2023/05/29 09:49:32;;;;;;;43.28;40.33;;;18.50;99.90;;;;;;4981860;28;20508;-70
2023/05/29 09:51:59;;;;;;;42.63;40.08;;;17.50;99.90;;;;;;4969747;28;20105;-71
2023/05/29 09:54:30;;;;;;;40.80;38.20;;;17.50;99.90;;;;;;4970697;28;20041;-71
2023/05/29 09:57:03;;;;;;;40.40;37.65;;;17.90;99.90;;;;;;4969697;28;20145;-72
2023/05/29 09:59:32;;;;;;;42.75;39.67;;;18.80;99.90;;;;;;4969090;28;20217;-71
2023/05/29 10:02:04;;;;;;;42.42;39.33;;;19.20;99.90;;;;;;4966705;28;20056;-71
2023/05/29 10:04:35;;;;;;;42.53;39.75;;;18.30;99.90;;;;;;4965093;28;20086;-71
2023/05/29 10:07:08;;;;;;;42.10;39.25;;;18.10;99.90;;;;;;4964144;28;20125;-72
2023/05/29 10:09:38;;;;;;;40.50;37.85;;;18.00;99.90;;;;;;4963746;28;20050;-71
2023/05/29 10:12:08;;;;;;;40.25;37.78;;;18.60;99.90;;;;;;4967427;28;20111;-71
2023/05/29 10:14:36;;;;;;;41.83;38.80;;;19.30;99.90;;;;;;4964099;28;20495;-71
2023/05/29 10:17:08;;;;;;;39.95;37.42;;;19.60;99.90;;;;;;4963390;28;20073;-73
2023/05/29 10:19:38;;;;;;;42.60;39.67;;;20.00;99.90;;;;;;4964634;28;20512;-73
2023/05/29 10:22:06;;;;;;;44.72;41.85;;;20.50;99.90;;;;;;4970213;28;20492;-72
2023/05/29 10:24:36;;;;;;;44.55;41.60;;;19.10;99.90;;;;;;4963093;28;20052;-71
2023/05/29 10:27:05;;;;;;;44.25;41.30;;;18.00;99.90;;;;;;4964959;28;20038;-72
2023/05/29 10:29:39;;;;;;;41.60;38.80;;;18.10;99.90;;;;;;4958175;28;20124;-77
2023/05/29 10:32:12;;;;;;;44.50;41.63;;;18.80;99.90;;;;;;4967844;28;20460;-73
2023/05/29 10:34:50;;;;;;;42.60;39.90;;;18.90;99.90;;;;;;4968185;28;20815;-72
2023/05/29 10:37:17;;;;;;;43.45;40.63;;;18.70;99.90;;;;;;4962909;28;20142;-71
2023/05/29 10:39:44;;;;;;;42.88;40.05;;;18.20;99.90;;;;;;4974201;28;20140;-70
2023/05/29 10:42:52;;;;;;;42.90;39.63;;;18.50;99.90;;;;;;4968376;28;20476;-71
2023/05/29 10:45:42;;;;;;;43.30;40.20;;;19.20;99.90;;;;;;4961355;28;20446;-71
2023/05/29 10:48:12;;;;;;;43.25;40.72;;;19.40;99.90;;;;;;4959113;28;20540;-71
2023/05/29 10:50:42;;;;;;;43.20;40.08;;;19.50;99.90;;;;;;4962570;28;20678;-69
2023/05/29 10:53:10;;;;;;;43.42;40.83;;;19.10;99.90;;;;;;4964964;28;20050;-71
2023/05/29 10:55:38;;;;;;;42.75;39.53;;;18.70;99.90;;;;;;4962564;28;20140;-71
2023/05/29 10:58:11;;;;;;;43.67;41.05;;;18.20;99.90;;;;;;4968925;28;20081;-72
2023/05/29 11:00:46;;;;;;;42.03;39.17;;;18.20;99.90;;;;;;4962557;28;20054;-73
2023/05/29 11:03:29;;;;;;;45.28;42.38;;;19.10;99.90;;;;;;4965915;28;20065;-71
2023/05/29 11:06:10;;;;;;;41.38;39.08;;;19.30;99.90;;;;;;4964940;28;20747;-72
2023/05/29 11:08:45;;;;;;;43.75;41.08;;;19.70;99.90;;;;;;4960163;28;20316;-72
2023/05/29 11:11:13;;;;;;;;;;;20.30;99.90;;;;;;4963654;28;20039;-71
2023/05/29 11:13:44;;;;;;;43.58;40.63;;;19.90;99.90;;;;;;4963298;28;20299;-72
2023/05/29 11:16:19;;;;;;;43.90;41.25;;;20.10;99.90;;;;;;4965706;28;20161;-72
2023/05/29 11:18:47;;;;;;;;;;;19.20;99.90;;;;;;4963584;28;20355;-71
2023/05/29 11:21:29;;;;;;;44.35;41.60;;;18.70;99.90;;;;;;4962940;28;20008;-70
2023/05/29 11:23:59;;;;;;;44.05;41.25;;;18.90;99.90;;;;;;4959766;28;20050;-71
2023/05/29 11:26:28;;;;;;;44.35;41.05;;;18.90;99.90;;;;;;4963580;28;20050;-72
2023/05/29 11:28:58;;;;;;;44.65;41.90;;;19.50;99.90;;;;;;4961459;28;20153;-70
2023/05/29 11:31:26;;;;;;;45.67;42.70;;;19.90;99.90;;;;;;4965107;28;20302;-71
2023/05/29 11:33:58;;;;;;;43.03;39.95;;;20.10;99.90;;;;;;4963017;28;20049;-72
2023/05/29 11:36:26;;;;;;;44.40;41.63;;;20.50;99.90;;;;;;4968388;28;20101;-71
2023/05/29 11:38:53;;;;;;;44.45;41.58;;;20.60;99.90;;;;;;4977085;28;20051;-71
2023/05/29 11:41:20;;;;;;;45.08;42.13;;;20.30;99.90;;;;;;4967077;28;20120;-71
2023/05/29 11:43:58;;;;;;;42.63;39.75;;;20.20;99.90;;;;;;4959609;28;20057;-71
2023/05/29 11:46:27;;;;;;;44.17;41.20;;;20.40;99.90;;;;;;4958461;28;20038;-71
2023/05/29 11:48:54;;;;;;;43.60;40.45;;;19.90;99.90;;;;;;4970761;28;20583;-73
2023/05/29 11:51:21;;;;;;;43.33;40.67;;;19.90;99.90;;;;;;4959584;28;20124;-71
2023/05/29 11:53:49;;;;;;;45.13;41.60;;;20.00;99.90;;;;;;4961653;28;20047;-72
2023/05/29 11:56:16;;;;;;;45.08;41.88;;;20.20;99.90;;;;;;4969590;28;20066;-72
2023/05/29 11:58:44;;;;;;;44.97;41.95;;;20.40;99.90;;;;;;4964611;28;20058;-72
2023/05/29 12:01:11;;;;;;;44.60;41.80;;;20.40;99.90;;;;;;4967090;28;20422;-71
2023/05/29 12:03:39;;;;;;;45.20;42.70;;;20.40;99.90;;;;;;4970815;28;20132;-72
2023/05/29 12:06:07;;;;;;;44.00;40.83;;;20.30;99.90;;;;;;4972913;28;20061;-72
2023/05/29 12:08:35;;;;;;;42.63;40.03;;;20.40;99.90;;;;;;4954721;28;20034;-71
2023/05/29 12:11:02;;;;;;;47.75;44.40;;;20.40;99.90;;;;;;4963932;28;20145;-71
2023/05/29 12:13:29;;;;;;;45.97;42.75;;;20.50;99.90;;;;;;4971886;28;20054;-72
2023/05/29 12:16:02;;;;;;;45.42;42.33;;;20.60;99.90;;;;;;4977768;28;20038;-71
2023/05/29 12:18:32;;;;;;;45.47;42.35;;;20.70;99.90;;;;;;4964321;28;20054;-72
2023/05/29 12:21:02;;;;;;;44.63;41.70;;;21.20;99.90;;;;;;4965169;28;20034;-72
2023/05/29 12:23:29;;;;;;;46.38;42.90;;;21.30;99.90;;;;;;4970062;28;20148;-71
2023/05/29 12:25:58;;;;;;;43.35;40.60;;;21.50;99.90;;;;;;4966835;28;20065;-71
2023/05/29 12:28:25;;;;;;;45.33;42.42;;;21.60;99.90;;;;;;4968387;28;20039;-71
2023/05/29 12:30:58;;;;;;;47.30;44.50;;;20.90;99.90;;;;;;4966941;28;20053;-71
2023/05/29 12:33:30;;;;;;;42.63;39.88;;;20.60;99.90;;;;;;4966489;28;20054;-71
2023/05/29 12:36:11;;;;;;;48.50;45.50;;;20.80;99.90;;;;;;4952878;28;20177;-71
2023/05/29 12:38:49;;;;;;;49.33;46.10;;;20.50;99.90;;;;;;4969930;28;20247;-69